sensor_id;sensor_type;location;lat;lon;timestamp;pressure;altitude;pressure_sealevel;temperature;humidity
20115;BME280;10218;42.874;25.320;2023-05-14T00:02:12;97668.97;;;14.35;53.98
20115;BME280;10218;42.874;25.320;2023-05-14T00:04:40;97685.03;;;14.43;53.63
20115;BME280;10218;42.874;25.320;2023-05-14T00:07:07;97674.66;;;14.40;53.93
20115;BME280;10218;42.874;25.320;2023-05-14T00:09:34;97681.88;;;14.39;54.10
20115;BME280;10218;42.874;25.320;2023-05-14T00:12:02;97685.13;;;14.49;53.89
20115;BME280;10218;42.874;25.320;2023-05-14T00:14:29;97670.94;;;14.41;54.69
20115;BME280;10218;42.874;25.320;2023-05-14T00:16:56;97675.22;;;14.50;54.13
20115;BME280;10218;42.874;25.320;2023-05-14T00:19:24;97657.69;;;14.39;54.18
20115;BME280;10218;42.874;25.320;2023-05-14T00:21:51;97671.59;;;14.43;54.37
20115;BME280;10218;42.874;25.320;2023-05-14T00:24:18;97665.75;;;14.54;54.05
20115;BME280;10218;42.874;25.320;2023-05-14T00:26:46;97658.72;;;14.53;54.17
20115;BME280;10218;42.874;25.320;2023-05-14T00:29:13;97651.13;;;14.57;53.78
20115;BME280;10218;42.874;25.320;2023-05-14T00:31:40;97656.84;;;14.53;54.36
20115;BME280;10218;42.874;25.320;2023-05-14T00:34:07;97644.81;;;14.64;53.56
20115;BME280;10218;42.874;25.320;2023-05-14T00:36:34;97654.94;;;14.62;53.88
20115;BME280;10218;42.874;25.320;2023-05-14T00:39:01;97646.47;;;14.65;53.32
20115;BME280;10218;42.874;25.320;2023-05-14T00:41:29;97643.50;;;14.60;53.74
20115;BME280;10218;42.874;25.320;2023-05-14T00:43:56;97639.34;;;14.58;54.34
20115;BME280;10218;42.874;25.320;2023-05-14T00:46:23;97636.84;;;14.56;54.61
20115;BME280;10218;42.874;25.320;2023-05-14T00:48:52;97627.62;;;14.36;55.76
20115;BME280;10218;42.874;25.320;2023-05-14T00:51:19;97636.94;;;14.63;55.06
20115;BME280;10218;42.874;25.320;2023-05-14T00:53:47;97625.34;;;14.62;54.25
20115;BME280;10218;42.874;25.320;2023-05-14T00:56:14;97631.66;;;14.54;54.66
20115;BME280;10218;42.874;25.320;2023-05-14T00:58:42;97630.63;;;14.55;54.61
20115;BME280;10218;42.874;25.320;2023-05-14T01:01:09;97636.47;;;14.59;54.61
20115;BME280;10218;42.874;25.320;2023-05-14T01:03:38;97627.00;;;14.63;54.74
20115;BME280;10218;42.874;25.320;2023-05-14T01:06:17;97626.06;;;14.71;54.54
20115;BME280;10218;42.874;25.320;2023-05-14T01:11:35;97615.22;;;14.64;55.20
20115;BME280;10218;42.874;25.320;2023-05-14T01:14:27;97615.16;;;14.72;54.41
20115;BME280;10218;42.874;25.320;2023-05-14T01:17:01;97607.16;;;14.64;54.42
20115;BME280;10218;42.874;25.320;2023-05-14T01:19:36;97601.44;;;14.67;54.50
20115;BME280;10218;42.874;25.320;2023-05-14T01:22:04;97607.16;;;14.64;54.68
20115;BME280;10218;42.874;25.320;2023-05-14T01:24:32;97612.81;;;14.69;55.47
20115;BME280;10218;42.874;25.320;2023-05-14T01:27:05;97616.50;;;14.68;55.88
20115;BME280;10218;42.874;25.320;2023-05-14T01:29:36;97611.91;;;14.62;55.39
20115;BME280;10218;42.874;25.320;2023-05-14T01:32:07;97610.50;;;14.66;55.84
20115;BME280;10218;42.874;25.320;2023-05-14T01:34:35;97616.72;;;14.67;56.49
20115;BME280;10218;42.874;25.320;2023-05-14T01:37:04;97616.97;;;14.86;55.37
20115;BME280;10218;42.874;25.320;2023-05-14T01:39:33;97621.44;;;14.79;56.51
20115;BME280;10218;42.874;25.320;2023-05-14T01:42:04;97614.22;;;14.65;57.84
20115;BME280;10218;42.874;25.320;2023-05-14T01:44:33;97605.47;;;14.63;58.83
20115;BME280;10218;42.874;25.320;2023-05-14T01:47:00;97600.66;;;14.73;58.79
20115;BME280;10218;42.874;25.320;2023-05-14T01:49:27;97609.56;;;14.74;58.45
20115;BME280;10218;42.874;25.320;2023-05-14T01:51:54;97612.81;;;14.69;58.26
20115;BME280;10218;42.874;25.320;2023-05-14T01:54:21;97611.94;;;14.83;58.24
20115;BME280;10218;42.874;25.320;2023-05-14T01:56:49;97602.63;;;14.65;59.58
20115;BME280;10218;42.874;25.320;2023-05-14T01:59:16;97612.38;;;14.51;60.87
20115;BME280;10218;42.874;25.320;2023-05-14T02:01:43;97616.19;;;14.42;59.96
20115;BME280;10218;42.874;25.320;2023-05-14T02:04:10;97608.94;;;14.57;59.93
20115;BME280;10218;42.874;25.320;2023-05-14T02:06:40;97608.56;;;14.60;58.95
20115;BME280;10218;42.874;25.320;2023-05-14T02:09:07;97601.44;;;14.67;57.86
20115;BME280;10218;42.874;25.320;2023-05-14T02:11:34;97609.94;;;14.71;56.81
20115;BME280;10218;42.874;25.320;2023-05-14T02:14:02;97606.97;;;14.66;57.30
20115;BME280;10218;42.874;25.320;2023-05-14T02:16:30;97602.16;;;14.61;57.02
20115;BME280;10218;42.874;25.320;2023-05-14T02:18:57;97600.03;;;14.57;57.69
20115;BME280;10218;42.874;25.320;2023-05-14T02:21:25;97602.25;;;14.68;57.21
20115;BME280;10218;42.874;25.320;2023-05-14T02:23:52;97596.31;;;14.72;57.42
20115;BME280;10218;42.874;25.320;2023-05-14T02:26:19;97601.03;;;14.70;58.04
20115;BME280;10218;42.874;25.320;2023-05-14T02:28:49;97598.88;;;14.80;57.25
20115;BME280;10218;42.874;25.320;2023-05-14T02:31:16;97581.19;;;14.71;57.56
20115;BME280;10218;42.874;25.320;2023-05-14T02:33:45;97584.50;;;14.73;57.80
20115;BME280;10218;42.874;25.320;2023-05-14T02:36:12;97583.06;;;14.71;57.39
20115;BME280;10218;42.874;25.320;2023-05-14T02:38:39;97594.53;;;14.79;57.43
20115;BME280;10218;42.874;25.320;2023-05-14T02:41:06;97604.19;;;14.74;58.06
20115;BME280;10218;42.874;25.320;2023-05-14T02:43:33;97607.69;;;14.74;58.58
20115;BME280;10218;42.874;25.320;2023-05-14T02:46:00;97599.63;;;14.74;58.76
20115;BME280;10218;42.874;25.320;2023-05-14T02:48:27;97606.13;;;14.80;59.35
20115;BME280;10218;42.874;25.320;2023-05-14T02:50:54;97594.75;;;14.78;59.23
20115;BME280;10218;42.874;25.320;2023-05-14T02:53:21;97599.91;;;14.79;60.03
20115;BME280;10218;42.874;25.320;2023-05-14T02:55:48;97592.97;;;14.70;59.75
20115;BME280;10218;42.874;25.320;2023-05-14T02:58:16;97597.69;;;14.83;59.88
20115;BME280;10218;42.874;25.320;2023-05-14T03:00:43;97603.25;;;14.81;59.73
20115;BME280;10218;42.874;25.320;2023-05-14T03:03:10;97594.72;;;14.92;59.71
20115;BME280;10218;42.874;25.320;2023-05-14T03:05:37;97595.47;;;14.86;60.12
20115;BME280;10218;42.874;25.320;2023-05-14T03:08:04;97588.22;;;14.87;60.47
20115;BME280;10218;42.874;25.320;2023-05-14T03:10:32;97593.31;;;14.96;59.79
20115;BME280;10218;42.874;25.320;2023-05-14T03:12:59;97589.28;;;15.07;58.34
20115;BME280;10218;42.874;25.320;2023-05-14T03:15:27;97582.88;;;15.08;58.61
20115;BME280;10218;42.874;25.320;2023-05-14T03:17:54;97583.78;;;15.15;57.95
20115;BME280;10218;42.874;25.320;2023-05-14T03:20:23;97581.75;;;15.17;58.32
20115;BME280;10218;42.874;25.320;2023-05-14T03:22:51;97575.53;;;15.17;58.90
20115;BME280;10218;42.874;25.320;2023-05-14T03:25:18;97576.78;;;15.21;59.41
20115;BME280;10218;42.874;25.320;2023-05-14T03:27:46;97577.37;;;15.16;59.71
20115;BME280;10218;42.874;25.320;2023-05-14T03:30:13;97584.03;;;15.20;60.88
20115;BME280;10218;42.874;25.320;2023-05-14T03:32:40;97585.13;;;15.26;60.35
20115;BME280;10218;42.874;25.320;2023-05-14T03:35:09;97582.00;;;15.22;62.19
20115;BME280;10218;42.874;25.320;2023-05-14T03:37:36;97568.53;;;15.22;64.43
20115;BME280;10218;42.874;25.320;2023-05-14T03:40:03;97583.22;;;15.41;64.56
20115;BME280;10218;42.874;25.320;2023-05-14T03:42:31;97588.09;;;15.31;65.43
20115;BME280;10218;42.874;25.320;2023-05-14T03:44:58;97588.31;;;15.15;65.96
20115;BME280;10218;42.874;25.320;2023-05-14T03:47:25;97583.78;;;15.36;70.81
20115;BME280;10218;42.874;25.320;2023-05-14T03:49:52;97581.53;;;15.19;74.08
20115;BME280;10218;42.874;25.320;2023-05-14T03:52:19;97584.87;;;15.42;77.13
20115;BME280;10218;42.874;25.320;2023-05-14T03:54:46;97590.06;;;15.58;77.99
20115;BME280;10218;42.874;25.320;2023-05-14T03:57:14;97585.13;;;15.26;75.53
20115;BME280;10218;42.874;25.320;2023-05-14T03:59:41;97591.53;;;15.25;77.95
20115;BME280;10218;42.874;25.320;2023-05-14T04:02:08;97592.87;;;15.35;81.05
20115;BME280;10218;42.874;25.320;2023-05-14T04:04:35;97599.97;;;15.01;82.17
20115;BME280;10218;42.874;25.320;2023-05-14T04:07:02;97585.34;;;15.67;79.59
20115;BME280;10218;42.874;25.320;2023-05-14T04:09:30;97595.03;;;15.61;79.08
20115;BME280;10218;42.874;25.320;2023-05-14T04:11:57;97597.34;;;15.43;83.81
20115;BME280;10218;42.874;25.320;2023-05-14T04:14:24;97598.19;;;15.08;85.14
20115;BME280;10218;42.874;25.320;2023-05-14T04:16:51;97593.91;;;15.34;81.58
20115;BME280;10218;42.874;25.320;2023-05-14T04:19:20;97607.94;;;15.30;86.63
20115;BME280;10218;42.874;25.320;2023-05-14T04:21:47;97621.63;;;14.92;97.35
20115;BME280;10218;42.874;25.320;2023-05-14T04:24:15;97626.03;;;15.36;92.19
20115;BME280;10218;42.874;25.320;2023-05-14T04:26:43;97606.22;;;15.22;99.05
20115;BME280;10218;42.874;25.320;2023-05-14T04:29:10;97603.22;;;15.32;89.64
20115;BME280;10218;42.874;25.320;2023-05-14T04:31:36;97587.88;;;15.68;90.84
20115;BME280;10218;42.874;25.320;2023-05-14T04:34:04;97599.19;;;15.85;89.24
20115;BME280;10218;42.874;25.320;2023-05-14T04:36:31;97592.44;;;15.96;82.34
20115;BME280;10218;42.874;25.320;2023-05-14T04:38:58;97590.34;;;15.49;84.32
20115;BME280;10218;42.874;25.320;2023-05-14T04:41:25;97570.44;;;15.64;84.62
20115;BME280;10218;42.874;25.320;2023-05-14T04:43:55;97565.94;;;15.99;85.83
20115;BME280;10218;42.874;25.320;2023-05-14T04:46:22;97558.38;;;16.50;74.55
20115;BME280;10218;42.874;25.320;2023-05-14T04:48:49;97567.13;;;17.00;66.61
20115;BME280;10218;42.874;25.320;2023-05-14T04:51:17;97571.66;;;17.67;67.02
20115;BME280;10218;42.874;25.320;2023-05-14T04:53:44;97568.66;;;17.29;59.21
20115;BME280;10218;42.874;25.320;2023-05-14T04:56:11;97578.16;;;17.05;64.60
20115;BME280;10218;42.874;25.320;2023-05-14T04:58:38;97581.88;;;17.04;64.61
20115;BME280;10218;42.874;25.320;2023-05-14T05:01:05;97584.84;;;17.16;59.42
20115;BME280;10218;42.874;25.320;2023-05-14T05:03:33;97593.19;;;17.34;57.51
20115;BME280;10218;42.874;25.320;2023-05-14T05:06:00;97596.12;;;17.59;56.44
20115;BME280;10218;42.874;25.320;2023-05-14T05:08:27;97585.31;;;17.59;55.39
20115;BME280;10218;42.874;25.320;2023-05-14T05:10:54;97587.88;;;17.67;55.62
20115;BME280;10218;42.874;25.320;2023-05-14T05:13:21;97591.50;;;17.26;57.21
20115;BME280;10218;42.874;25.320;2023-05-14T05:15:48;97606.53;;;17.55;56.78
20115;BME280;10218;42.874;25.320;2023-05-14T05:18:16;97596.19;;;17.78;53.93
20115;BME280;10218;42.874;25.320;2023-05-14T05:20:43;97587.03;;;17.60;53.80
20115;BME280;10218;42.874;25.320;2023-05-14T05:23:10;97595.34;;;18.30;53.23
20115;BME280;10218;42.874;25.320;2023-05-14T05:25:37;97599.28;;;18.48;51.46
20115;BME280;10218;42.874;25.320;2023-05-14T05:28:04;97597.25;;;18.23;51.82
20115;BME280;10218;42.874;25.320;2023-05-14T05:30:31;97607.59;;;18.53;50.84
20115;BME280;10218;42.874;25.320;2023-05-14T05:32:59;97610.53;;;18.38;50.96
20115;BME280;10218;42.874;25.320;2023-05-14T05:35:26;97603.44;;;18.44;50.71
20115;BME280;10218;42.874;25.320;2023-05-14T05:37:53;97603.78;;;18.80;49.88
20115;BME280;10218;42.874;25.320;2023-05-14T05:40:20;97608.81;;;18.50;49.43
20115;BME280;10218;42.874;25.320;2023-05-14T05:42:47;97602.81;;;18.55;49.75
20115;BME280;10218;42.874;25.320;2023-05-14T05:45:14;97619.44;;;18.52;50.20
20115;BME280;10218;42.874;25.320;2023-05-14T05:47:42;97631.13;;;17.93;50.47
20115;BME280;10218;42.874;25.320;2023-05-14T05:50:09;97633.84;;;18.32;50.21
20115;BME280;10218;42.874;25.320;2023-05-14T05:52:37;97640.69;;;17.95;50.55
20115;BME280;10218;42.874;25.320;2023-05-14T05:55:05;97641.09;;;17.99;50.19
20115;BME280;10218;42.874;25.320;2023-05-14T05:57:32;97636.75;;;17.91;50.58
20115;BME280;10218;42.874;25.320;2023-05-14T05:59:59;97645.25;;;17.88;50.66
20115;BME280;10218;42.874;25.320;2023-05-14T06:02:27;97646.63;;;17.58;50.18
20115;BME280;10218;42.874;25.320;2023-05-14T06:04:54;97637.31;;;17.61;49.63
20115;BME280;10218;42.874;25.320;2023-05-14T06:07:21;97636.91;;;17.64;49.61
20115;BME280;10218;42.874;25.320;2023-05-14T06:09:48;97631.94;;;17.74;49.50
20115;BME280;10218;42.874;25.320;2023-05-14T06:12:15;97627.12;;;17.63;50.01
20115;BME280;10218;42.874;25.320;2023-05-14T06:14:42;97633.75;;;17.47;49.74
20115;BME280;10218;42.874;25.320;2023-05-14T06:17:09;97641.38;;;17.30;50.44
20115;BME280;10218;42.874;25.320;2023-05-14T06:19:36;97629.13;;;17.34;50.13
20115;BME280;10218;42.874;25.320;2023-05-14T06:22:03;97642.59;;;17.21;49.64
20115;BME280;10218;42.874;25.320;2023-05-14T06:24:30;97644.19;;;17.09;49.54
20115;BME280;10218;42.874;25.320;2023-05-14T06:26:58;97635.19;;;16.89;49.90
20115;BME280;10218;42.874;25.320;2023-05-14T06:29:25;97629.81;;;17.02;49.39
20115;BME280;10218;42.874;25.320;2023-05-14T06:31:52;97634.19;;;17.03;49.72
20115;BME280;10218;42.874;25.320;2023-05-14T06:34:19;97647.22;;;17.40;49.52
20115;BME280;10218;42.874;25.320;2023-05-14T06:36:46;97654.41;;;17.20;48.71
20115;BME280;10218;42.874;25.320;2023-05-14T06:39:13;97662.13;;;17.30;48.75
20115;BME280;10218;42.874;25.320;2023-05-14T06:41:41;97664.25;;;17.41;48.53
20115;BME280;10218;42.874;25.320;2023-05-14T06:44:12;97659.69;;;17.48;48.12
20115;BME280;10218;42.874;25.320;2023-05-14T06:46:39;97646.75;;;17.24;48.36
20115;BME280;10218;42.874;25.320;2023-05-14T06:49:06;97653.44;;;17.47;47.88
20115;BME280;10218;42.874;25.320;2023-05-14T06:51:33;97667.41;;;17.51;47.81
20115;BME280;10218;42.874;25.320;2023-05-14T06:54:00;97668.84;;;17.47;47.49
20115;BME280;10218;42.874;25.320;2023-05-14T06:56:27;97686.94;;;17.53;47.83
20115;BME280;10218;42.874;25.320;2023-05-14T06:58:54;97690.94;;;17.64;47.35
20115;BME280;10218;42.874;25.320;2023-05-14T07:01:21;97697.72;;;17.53;47.05
20115;BME280;10218;42.874;25.320;2023-05-14T07:03:49;97702.62;;;17.71;47.11
20115;BME280;10218;42.874;25.320;2023-05-14T07:06:16;97688.84;;;17.05;47.75
20115;BME280;10218;42.874;25.320;2023-05-14T07:08:43;97699.44;;;17.13;48.23
20115;BME280;10218;42.874;25.320;2023-05-14T07:11:13;97700.75;;;17.24;48.47
20115;BME280;10218;42.874;25.320;2023-05-14T07:13:41;97695.81;;;17.34;48.46
20115;BME280;10218;42.874;25.320;2023-05-14T07:16:08;97685.94;;;17.06;48.66
20115;BME280;10218;42.874;25.320;2023-05-14T07:18:36;97686.63;;;17.28;48.83
20115;BME280;10218;42.874;25.320;2023-05-14T07:21:03;97688.62;;;17.06;48.70
20115;BME280;10218;42.874;25.320;2023-05-14T07:23:32;97686.59;;;17.15;48.99
20115;BME280;10218;42.874;25.320;2023-05-14T07:26:04;97694.59;;;17.43;48.50
20115;BME280;10218;42.874;25.320;2023-05-14T07:28:31;97703.06;;;17.33;48.64
20115;BME280;10218;42.874;25.320;2023-05-14T07:30:59;97706.34;;;17.70;47.99
20115;BME280;10218;42.874;25.320;2023-05-14T07:33:26;97713.00;;;17.67;47.75
20115;BME280;10218;42.874;25.320;2023-05-14T07:35:53;97707.19;;;17.70;47.72
20115;BME280;10218;42.874;25.320;2023-05-14T07:38:20;97709.75;;;17.44;47.86
20115;BME280;10218;42.874;25.320;2023-05-14T07:40:48;97709.56;;;17.45;47.96
20115;BME280;10218;42.874;25.320;2023-05-14T07:43:15;97711.25;;;17.46;48.42
20115;BME280;10218;42.874;25.320;2023-05-14T07:45:42;97716.28;;;17.15;48.40
20115;BME280;10218;42.874;25.320;2023-05-14T07:48:09;97724.94;;;17.45;48.26
20115;BME280;10218;42.874;25.320;2023-05-14T07:50:36;97716.13;;;17.23;48.29
20115;BME280;10218;42.874;25.320;2023-05-14T07:53:03;97715.34;;;17.36;48.66
20115;BME280;10218;42.874;25.320;2023-05-14T07:55:31;97706.16;;;17.24;48.79
20115;BME280;10218;42.874;25.320;2023-05-14T07:57:58;97703.62;;;17.22;49.25
20115;BME280;10218;42.874;25.320;2023-05-14T08:00:25;97706.09;;;17.17;49.04
20115;BME280;10218;42.874;25.320;2023-05-14T08:02:54;97720.03;;;17.14;49.14
20115;BME280;10218;42.874;25.320;2023-05-14T08:05:21;97709.03;;;17.16;48.90
20115;BME280;10218;42.874;25.320;2023-05-14T08:07:48;97689.91;;;17.17;49.28
20115;BME280;10218;42.874;25.320;2023-05-14T08:10:15;97698.66;;;17.19;49.20
20115;BME280;10218;42.874;25.320;2023-05-14T08:12:42;97708.69;;;17.32;49.09
20115;BME280;10218;42.874;25.320;2023-05-14T08:15:09;97721.03;;;17.54;48.81
20115;BME280;10218;42.874;25.320;2023-05-14T08:17:37;97715.94;;;17.79;48.32
20115;BME280;10218;42.874;25.320;2023-05-14T08:20:05;97715.50;;;17.69;48.64
20115;BME280;10218;42.874;25.320;2023-05-14T08:22:32;97731.97;;;17.39;49.81
20115;BME280;10218;42.874;25.320;2023-05-14T08:24:59;97738.44;;;17.04;50.19
20115;BME280;10218;42.874;25.320;2023-05-14T08:27:28;97722.37;;;17.30;50.15
20115;BME280;10218;42.874;25.320;2023-05-14T08:29:55;97721.81;;;17.48;49.22
20115;BME280;10218;42.874;25.320;2023-05-14T08:32:22;97725.66;;;17.19;50.28
20115;BME280;10218;42.874;25.320;2023-05-14T08:34:50;97726.91;;;17.23;49.71
20115;BME280;10218;42.874;25.320;2023-05-14T08:37:17;97735.81;;;17.17;49.69
20115;BME280;10218;42.874;25.320;2023-05-14T08:39:45;97733.03;;;17.04;50.40
20115;BME280;10218;42.874;25.320;2023-05-14T08:42:12;97734.84;;;16.62;51.14
20115;BME280;10218;42.874;25.320;2023-05-14T08:45:01;97737.00;;;16.74;51.10
20115;BME280;10218;42.874;25.320;2023-05-14T08:47:29;97746.09;;;16.45;51.30
20115;BME280;10218;42.874;25.320;2023-05-14T08:50:01;97751.56;;;16.79;51.42
20115;BME280;10218;42.874;25.320;2023-05-14T08:52:31;97752.75;;;16.70;52.00
20115;BME280;10218;42.874;25.320;2023-05-14T08:55:00;97758.09;;;16.42;52.61
20115;BME280;10218;42.874;25.320;2023-05-14T08:57:29;97754.97;;;16.39;52.66
20115;BME280;10218;42.874;25.320;2023-05-14T08:59:57;97752.78;;;16.27;53.67
20115;BME280;10218;42.874;25.320;2023-05-14T09:02:28;97756.22;;;16.00;53.98
20115;BME280;10218;42.874;25.320;2023-05-14T09:04:59;97756.72;;;16.04;55.05
20115;BME280;10218;42.874;25.320;2023-05-14T09:07:27;97742.97;;;16.20;55.54
20115;BME280;10218;42.874;25.320;2023-05-14T09:09:54;97746.28;;;16.01;56.69
20115;BME280;10218;42.874;25.320;2023-05-14T09:12:21;97742.50;;;16.38;57.46
20115;BME280;10218;42.874;25.320;2023-05-14T09:14:49;97745.28;;;16.23;61.33
20115;BME280;10218;42.874;25.320;2023-05-14T09:17:17;97746.47;;;16.20;60.99
20115;BME280;10218;42.874;25.320;2023-05-14T09:19:45;97765.16;;;16.22;61.11
20115;BME280;10218;42.874;25.320;2023-05-14T09:22:19;97752.19;;;16.11;63.22
20115;BME280;10218;42.874;25.320;2023-05-14T09:25:01;97769.03;;;16.13;67.95
20115;BME280;10218;42.874;25.320;2023-05-14T09:27:29;97759.50;;;15.96;70.09
20115;BME280;10218;42.874;25.320;2023-05-14T09:30:16;97747.88;;;15.95;72.23
20115;BME280;10218;42.874;25.320;2023-05-14T09:32:43;97752.31;;;15.81;74.74
20115;BME280;10218;42.874;25.320;2023-05-14T09:35:22;97752.19;;;15.39;79.21
20115;BME280;10218;42.874;25.320;2023-05-14T09:37:52;97753.22;;;15.38;83.32
20115;BME280;10218;42.874;25.320;2023-05-14T09:40:20;97748.56;;;15.61;92.53
20115;BME280;10218;42.874;25.320;2023-05-14T09:42:48;97746.53;;;15.63;95.01
20115;BME280;10218;42.874;25.320;2023-05-14T09:45:16;97752.19;;;15.39;95.05
20115;BME280;10218;42.874;25.320;2023-05-14T09:47:43;97735.31;;;15.81;99.31
20115;BME280;10218;42.874;25.320;2023-05-14T09:50:11;97744.87;;;15.83;90.56
20115;BME280;10218;42.874;25.320;2023-05-14T09:52:38;97739.28;;;15.85;96.91
20115;BME280;10218;42.874;25.320;2023-05-14T09:55:06;97743.84;;;15.63;99.24
20115;BME280;10218;42.874;25.320;2023-05-14T09:57:33;97746.28;;;16.01;94.73
20115;BME280;10218;42.874;25.320;2023-05-14T10:00:01;97728.09;;;16.03;95.60
20115;BME280;10218;42.874;25.320;2023-05-14T10:02:35;97730.00;;;16.09;92.89
20115;BME280;10218;42.874;25.320;2023-05-14T10:05:04;97719.09;;;16.17;96.89
20115;BME280;10218;42.874;25.320;2023-05-14T10:07:37;97715.69;;;16.08;100.00
20115;BME280;10218;42.874;25.320;2023-05-14T10:10:07;97722.78;;;16.37;100.00
20115;BME280;10218;42.874;25.320;2023-05-14T10:12:38;97707.56;;;16.79;97.53
20115;BME280;10218;42.874;25.320;2023-05-14T10:15:29;97712.91;;;16.44;95.25
20115;BME280;10218;42.874;25.320;2023-05-14T10:18:03;97698.38;;;16.45;100.00
20115;BME280;10218;42.874;25.320;2023-05-14T10:20:33;97678.63;;;16.38;100.00
20115;BME280;10218;42.874;25.320;2023-05-14T10:23:02;97688.12;;;16.34;100.00
20115;BME280;10218;42.874;25.320;2023-05-14T10:25:29;97670.22;;;16.54;100.00
20115;BME280;10218;42.874;25.320;2023-05-14T10:27:56;97669.88;;;16.98;98.98
20115;BME280;10218;42.874;25.320;2023-05-14T10:30:24;97661.97;;;16.90;100.00
20115;BME280;10218;42.874;25.320;2023-05-14T10:33:20;97664.50;;;16.98;99.18
20115;BME280;10218;42.874;25.320;2023-05-14T10:38:25;97670.16;;;17.10;100.00
20115;BME280;10218;42.874;25.320;2023-05-14T10:40:55;97661.44;;;17.62;92.63
20115;BME280;10218;42.874;25.320;2023-05-14T10:43:25;97648.88;;;17.35;91.77
20115;BME280;10218;42.874;25.320;2023-05-14T10:45:54;97653.19;;;18.16;85.29
20115;BME280;10218;42.874;25.320;2023-05-14T10:48:21;97649.88;;;18.08;82.28
20115;BME280;10218;42.874;25.320;2023-05-14T10:50:52;97647.38;;;18.06;80.85
20115;BME280;10218;42.874;25.320;2023-05-14T10:53:35;97639.44;;;17.98;79.63
20115;BME280;10218;42.874;25.320;2023-05-14T10:56:08;97632.78;;;17.74;78.25
20115;BME280;10218;42.874;25.320;2023-05-14T10:58:41;97627.81;;;18.17;77.73
20115;BME280;10218;42.874;25.320;2023-05-14T11:01:12;97614.06;;;17.66;75.33
20115;BME280;10218;42.874;25.320;2023-05-14T11:03:41;97606.16;;;18.24;72.47
20115;BME280;10218;42.874;25.320;2023-05-14T11:06:10;97614.91;;;18.59;68.32
20115;BME280;10218;42.874;25.320;2023-05-14T11:08:38;97607.19;;;18.03;72.48
20115;BME280;10218;42.874;25.320;2023-05-14T11:11:07;97615.75;;;18.26;71.53
20115;BME280;10218;42.874;25.320;2023-05-14T11:13:34;97612.44;;;17.91;72.52
20115;BME280;10218;42.874;25.320;2023-05-14T11:16:01;97597.84;;;17.60;75.73
20115;BME280;10218;42.874;25.320;2023-05-14T11:18:34;97607.75;;;17.52;76.00
20115;BME280;10218;42.874;25.320;2023-05-14T11:21:06;97594.00;;;17.28;78.90
20115;BME280;10218;42.874;25.320;2023-05-14T11:23:33;97597.72;;;17.20;81.92
20115;BME280;10218;42.874;25.320;2023-05-14T11:26:00;97586.09;;;17.20;84.20
20115;BME280;10218;42.874;25.320;2023-05-14T11:28:28;97578.22;;;17.31;81.80
20115;BME280;10218;42.874;25.320;2023-05-14T11:30:55;97577.97;;;17.06;85.91
20115;BME280;10218;42.874;25.320;2023-05-14T11:33:22;97588.50;;;16.95;84.46
20115;BME280;10218;42.874;25.320;2023-05-14T11:35:49;97595.03;;;17.20;81.71
20115;BME280;10218;42.874;25.320;2023-05-14T11:38:19;97585.94;;;16.87;85.09
20115;BME280;10218;42.874;25.320;2023-05-14T11:40:54;97581.50;;;16.59;87.05
20115;BME280;10218;42.874;25.320;2023-05-14T11:43:21;97593.53;;;16.63;86.96
20115;BME280;10218;42.874;25.320;2023-05-14T11:45:55;97582.75;;;16.63;87.68
20115;BME280;10218;42.874;25.320;2023-05-14T11:48:22;97576.16;;;16.38;88.20
20115;BME280;10218;42.874;25.320;2023-05-14T11:50:51;97567.09;;;16.52;90.63
20115;BME280;10218;42.874;25.320;2023-05-14T11:53:24;97567.78;;;16.61;90.18
20115;BME280;10218;42.874;25.320;2023-05-14T11:55:52;97578.25;;;16.43;90.31
20115;BME280;10218;42.874;25.320;2023-05-14T11:58:20;97571.53;;;16.32;91.56
20115;BME280;10218;42.874;25.320;2023-05-14T12:00:51;97554.16;;;16.41;91.10
20115;BME280;10218;42.874;25.320;2023-05-14T12:03:19;97544.63;;;16.39;93.66
20115;BME280;10218;42.874;25.320;2023-05-14T12:05:58;97563.44;;;15.98;98.38
20115;BME280;10218;42.874;25.320;2023-05-14T12:08:30;97562.66;;;16.04;98.28
20115;BME280;10218;42.874;25.320;2023-05-14T12:10:58;97556.38;;;15.97;100.00
20115;BME280;10218;42.874;25.320;2023-05-14T12:13:27;97556.88;;;16.07;100.00
20115;BME280;10218;42.874;25.320;2023-05-14T12:15:56;97557.41;;;15.96;100.00
20115;BME280;10218;42.874;25.320;2023-05-14T12:18:24;97551.75;;;16.18;100.00
20115;BME280;10218;42.874;25.320;2023-05-14T12:20:53;97530.91;;;16.34;100.00
20115;BME280;10218;42.874;25.320;2023-05-14T12:23:30;97540.97;;;16.18;98.27
20115;BME280;10218;42.874;25.320;2023-05-14T12:26:05;97548.22;;;16.18;99.57
20115;BME280;10218;42.874;25.320;2023-05-14T12:28:32;97534.44;;;16.34;98.98
20115;BME280;10218;42.874;25.320;2023-05-14T12:31:02;97540.50;;;16.43;97.18
20115;BME280;10218;42.874;25.320;2023-05-14T12:33:29;97536.66;;;16.24;97.95
20115;BME280;10218;42.874;25.320;2023-05-14T12:35:56;97537.38;;;16.39;97.79
20115;BME280;10218;42.874;25.320;2023-05-14T12:38:30;97551.28;;;16.08;99.42
20115;BME280;10218;42.874;25.320;2023-05-14T12:40:57;97541.56;;;16.14;100.00
20115;BME280;10218;42.874;25.320;2023-05-14T12:43:24;97539.78;;;16.27;99.33
20115;BME280;10218;42.874;25.320;2023-05-14T12:45:57;97540.44;;;16.30;99.71
20115;BME280;10218;42.874;25.320;2023-05-14T12:48:24;97538.81;;;16.35;99.97
20115;BME280;10218;42.874;25.320;2023-05-14T12:50:51;97517.16;;;16.22;100.00
20115;BME280;10218;42.874;25.320;2023-05-14T12:53:19;97533.31;;;16.22;100.00
20115;BME280;10218;42.874;25.320;2023-05-14T12:55:46;97535.81;;;16.23;100.00
20115;BME280;10218;42.874;25.320;2023-05-14T12:58:13;97509.28;;;16.27;100.00
20115;BME280;10218;42.874;25.320;2023-05-14T13:00:40;97505.34;;;16.23;100.00
20115;BME280;10218;42.874;25.320;2023-05-14T13:03:07;97492.28;;;16.26;100.00